sensor_id;sensor_type;location;lat;lon;timestamp;pressure;altitude;pressure_sealevel;temperature;humidity
12077;BME280;12420;42.676;23.262;2023-03-01T00:01:33;95016.00;;;6.18;100.00
12077;BME280;12420;42.676;23.262;2023-03-01T00:04:00;94974.34;;;5.93;100.00
12077;BME280;12420;42.676;23.262;2023-03-01T00:06:27;94992.97;;;6.09;100.00
12077;BME280;12420;42.676;23.262;2023-03-01T00:08:53;95000.66;;;6.05;100.00
12077;BME280;12420;42.676;23.262;2023-03-01T00:11:24;94998.25;;;6.13;100.00
12077;BME280;12420;42.676;23.262;2023-03-01T00:13:52;95001.03;;;6.19;100.00
12077;BME280;12420;42.676;23.262;2023-03-01T00:16:22;94992.75;;;6.13;100.00
12077;BME280;12420;42.676;23.262;2023-03-01T00:18:49;95002.22;;;6.12;100.00
12077;BME280;12420;42.676;23.262;2023-03-01T00:21:17;95004.22;;;6.12;100.00
12077;BME280;12420;42.676;23.262;2023-03-01T00:23:43;95003.03;;;6.18;100.00
12077;BME280;12420;42.676;23.262;2023-03-01T00:26:12;95005.00;;;6.18;100.00
12077;BME280;12420;42.676;23.262;2023-03-01T00:28:41;94986.41;;;6.01;100.00
12077;BME280;12420;42.676;23.262;2023-03-01T00:31:10;94994.66;;;6.01;100.00
12077;BME280;12420;42.676;23.262;2023-03-01T00:33:37;94990.31;;;6.21;100.00
12077;BME280;12420;42.676;23.262;2023-03-01T00:36:05;94990.53;;;6.23;100.00
12077;BME280;12420;42.676;23.262;2023-03-01T00:38:35;94950.41;;;5.99;100.00
12077;BME280;12420;42.676;23.262;2023-03-01T00:41:05;94988.91;;;6.37;100.00
12077;BME280;12420;42.676;23.262;2023-03-01T00:43:33;94969.78;;;6.16;100.00
12077;BME280;12420;42.676;23.262;2023-03-01T00:46:04;94974.13;;;6.28;100.00
12077;BME280;12420;42.676;23.262;2023-03-01T00:48:31;94984.91;;;6.38;100.00
12077;BME280;12420;42.676;23.262;2023-03-01T00:51:04;94989.28;;;6.18;100.00
12077;BME280;12420;42.676;23.262;2023-03-01T00:53:31;94979.69;;;6.45;100.00
12077;BME280;12420;42.676;23.262;2023-03-01T00:55:58;94981.22;;;6.46;100.00
12077;BME280;12420;42.676;23.262;2023-03-01T00:58:25;94976.91;;;6.34;100.00
12077;BME280;12420;42.676;23.262;2023-03-01T01:00:52;94982.19;;;6.43;100.00
12077;BME280;12420;42.676;23.262;2023-03-01T01:03:21;94978.94;;;6.39;100.00
12077;BME280;12420;42.676;23.262;2023-03-01T01:05:50;94951.56;;;6.19;100.00
12077;BME280;12420;42.676;23.262;2023-03-01T01:08:17;94992.09;;;6.29;100.00
12077;BME280;12420;42.676;23.262;2023-03-01T01:10:44;94954.22;;;6.07;100.00
12077;BME280;12420;42.676;23.262;2023-03-01T01:13:11;94976.66;;;6.38;100.00
12077;BME280;12420;42.676;23.262;2023-03-01T01:15:39;94986.91;;;6.37;100.00
12077;BME280;12420;42.676;23.262;2023-03-01T01:18:06;94974.59;;;6.27;100.00
12077;BME280;12420;42.676;23.262;2023-03-01T01:20:35;94985.28;;;6.57;100.00
12077;BME280;12420;42.676;23.262;2023-03-01T01:23:05;94990.78;;;6.57;100.00
12077;BME280;12420;42.676;23.262;2023-03-01T01:25:34;94982.22;;;6.49;100.00
12077;BME280;12420;42.676;23.262;2023-03-01T01:28:01;94984.69;;;6.41;100.00
12077;BME280;12420;42.676;23.262;2023-03-01T01:30:27;94986.44;;;6.39;100.00
12077;BME280;12420;42.676;23.262;2023-03-01T01:32:54;94984.09;;;6.26;100.00
12077;BME280;12420;42.676;23.262;2023-03-01T01:35:21;94939.34;;;5.88;100.00
12077;BME280;12420;42.676;23.262;2023-03-01T01:37:49;94994.63;;;6.33;100.00
12077;BME280;12420;42.676;23.262;2023-03-01T01:40:16;94989.50;;;6.15;100.00
12077;BME280;12420;42.676;23.262;2023-03-01T01:42:42;95008.16;;;6.37;100.00
12077;BME280;12420;42.676;23.262;2023-03-01T01:45:28;95002.63;;;6.31;100.00
12077;BME280;12420;42.676;23.262;2023-03-01T01:47:58;94990.78;;;6.19;100.00
12077;BME280;12420;42.676;23.262;2023-03-01T01:50:26;95005.53;;;6.22;100.00
12077;BME280;12420;42.676;23.262;2023-03-01T01:53:05;94997.84;;;6.26;100.00
12077;BME280;12420;42.676;23.262;2023-03-01T01:55:35;94992.78;;;6.19;100.00
12077;BME280;12420;42.676;23.262;2023-03-01T01:58:05;94971.50;;;6.14;100.00
12077;BME280;12420;42.676;23.262;2023-03-01T02:00:33;94956.16;;;5.96;100.00
12077;BME280;12420;42.676;23.262;2023-03-01T02:03:07;94986.03;;;6.20;100.00
12077;BME280;12420;42.676;23.262;2023-03-01T02:05:39;94979.22;;;6.09;100.00
12077;BME280;12420;42.676;23.262;2023-03-01T02:08:11;94972.81;;;6.18;100.00
12077;BME280;12420;42.676;23.262;2023-03-01T02:10:39;94974.25;;;6.14;100.00
12077;BME280;12420;42.676;23.262;2023-03-01T02:13:08;94965.22;;;6.07;100.00
12077;BME280;12420;42.676;23.262;2023-03-01T02:15:37;94963.72;;;6.06;100.00
12077;BME280;12420;42.676;23.262;2023-03-01T02:18:05;94958.22;;;6.06;100.00
12077;BME280;12420;42.676;23.262;2023-03-01T02:20:35;94942.66;;;5.98;100.00
12077;BME280;12420;42.676;23.262;2023-03-01T02:23:04;94957.66;;;5.97;100.00
12077;BME280;12420;42.676;23.262;2023-03-01T02:25:36;94963.28;;;6.14;100.00
12077;BME280;12420;42.676;23.262;2023-03-01T02:28:19;94963.53;;;6.16;100.00
12077;BME280;12420;42.676;23.262;2023-03-01T02:30:48;94962.47;;;6.07;100.00
12077;BME280;12420;42.676;23.262;2023-03-01T02:33:31;94997.75;;;6.15;100.00
12077;BME280;12420;42.676;23.262;2023-03-01T02:36:00;94952.09;;;5.91;100.00
12077;BME280;12420;42.676;23.262;2023-03-01T02:38:28;94983.84;;;6.29;100.00
12077;BME280;12420;42.676;23.262;2023-03-01T02:40:55;94987.63;;;6.32;100.00
12077;BME280;12420;42.676;23.262;2023-03-01T02:43:28;94976.63;;;6.32;100.00
12077;BME280;12420;42.676;23.262;2023-03-01T02:45:58;94982.38;;;6.34;100.00
12077;BME280;12420;42.676;23.262;2023-03-01T02:48:25;94977.59;;;6.29;100.00
12077;BME280;12420;42.676;23.262;2023-03-01T02:51:02;94975.38;;;6.33;100.00
12077;BME280;12420;42.676;23.262;2023-03-01T02:53:36;94982.97;;;6.44;100.00
12077;BME280;12420;42.676;23.262;2023-03-01T02:56:06;94959.84;;;6.24;100.00
12077;BME280;12420;42.676;23.262;2023-03-01T02:58:39;94965.22;;;6.45;100.00
12077;BME280;12420;42.676;23.262;2023-03-01T03:01:10;94974.72;;;6.44;100.00
12077;BME280;12420;42.676;23.262;2023-03-01T03:03:40;94937.78;;;6.13;100.00
12077;BME280;12420;42.676;23.262;2023-03-01T03:06:07;94954.56;;;6.21;100.00
12077;BME280;12420;42.676;23.262;2023-03-01T03:08:34;94964.78;;;6.20;100.00
12077;BME280;12420;42.676;23.262;2023-03-01T03:11:02;94954.31;;;6.19;100.00
12077;BME280;12420;42.676;23.262;2023-03-01T03:13:29;94971.66;;;6.36;100.00
12077;BME280;12420;42.676;23.262;2023-03-01T03:15:57;94969.28;;;6.18;100.00
12077;BME280;12420;42.676;23.262;2023-03-01T03:18:24;94967.69;;;6.05;100.00
12077;BME280;12420;42.676;23.262;2023-03-01T03:20:52;94976.88;;;5.97;100.00
12077;BME280;12420;42.676;23.262;2023-03-01T03:23:20;94972.13;;;5.97;100.00
12077;BME280;12420;42.676;23.262;2023-03-01T03:25:48;94969.31;;;5.92;100.00
12077;BME280;12420;42.676;23.262;2023-03-01T03:28:16;94951.19;;;5.74;100.00
12077;BME280;12420;42.676;23.262;2023-03-01T03:30:43;94949.22;;;5.80;100.00
12077;BME280;12420;42.676;23.262;2023-03-01T03:33:12;94983.16;;;6.03;100.00
12077;BME280;12420;42.676;23.262;2023-03-01T03:35:41;94977.50;;;6.12;100.00
12077;BME280;12420;42.676;23.262;2023-03-01T03:38:09;94974.88;;;5.97;100.00
12077;BME280;12420;42.676;23.262;2023-03-01T03:40:42;94960.03;;;5.83;100.00
12077;BME280;12420;42.676;23.262;2023-03-01T03:43:12;94994.63;;;5.96;100.00
12077;BME280;12420;42.676;23.262;2023-03-01T03:45:39;94977.41;;;6.01;100.00
12077;BME280;12420;42.676;23.262;2023-03-01T03:48:08;94987.50;;;5.83;100.00
12077;BME280;12420;42.676;23.262;2023-03-01T03:50:38;94982.84;;;5.95;100.00
12077;BME280;12420;42.676;23.262;2023-03-01T03:53:07;94967.28;;;5.86;100.00
12077;BME280;12420;42.676;23.262;2023-03-01T03:55:34;94955.28;;;5.84;100.00
12077;BME280;12420;42.676;23.262;2023-03-01T03:58:05;94975.16;;;5.99;100.00
12077;BME280;12420;42.676;23.262;2023-03-01T04:00:34;94975.16;;;5.99;100.00
12077;BME280;12420;42.676;23.262;2023-03-01T04:03:01;94954.22;;;5.76;100.00
12077;BME280;12420;42.676;23.262;2023-03-01T04:05:30;94972.28;;;5.88;100.00
12077;BME280;12420;42.676;23.262;2023-03-01T04:07:59;94968.75;;;5.82;100.00
12077;BME280;12420;42.676;23.262;2023-03-01T04:10:29;94940.34;;;5.59;100.00
12077;BME280;12420;42.676;23.262;2023-03-01T04:12:56;95000.16;;;5.75;100.00
12077;BME280;12420;42.676;23.262;2023-03-01T04:15:24;94973.91;;;5.74;100.00
12077;BME280;12420;42.676;23.262;2023-03-01T04:17:53;94971.69;;;5.73;100.00
12077;BME280;12420;42.676;23.262;2023-03-01T04:20:22;94976.63;;;5.69;100.00
12077;BME280;12420;42.676;23.262;2023-03-01T04:22:52;94977.66;;;5.71;100.00
12077;BME280;12420;42.676;23.262;2023-03-01T04:25:21;94965.88;;;5.65;100.00
12077;BME280;12420;42.676;23.262;2023-03-01T04:27:48;94973.13;;;5.68;100.00
12077;BME280;12420;42.676;23.262;2023-03-01T04:30:15;94982.84;;;5.69;100.00
12077;BME280;12420;42.676;23.262;2023-03-01T04:32:42;94980.16;;;5.75;100.00
12077;BME280;12420;42.676;23.262;2023-03-01T04:35:09;94976.47;;;5.78;100.00
12077;BME280;12420;42.676;23.262;2023-03-01T04:37:36;94967.13;;;5.70;100.00
12077;BME280;12420;42.676;23.262;2023-03-01T04:40:03;94947.03;;;5.52;100.00
12077;BME280;12420;42.676;23.262;2023-03-01T04:42:42;94961.25;;;5.51;100.00
12077;BME280;12420;42.676;23.262;2023-03-01T04:45:10;94967.38;;;5.66;100.00
12077;BME280;12420;42.676;23.262;2023-03-01T04:47:40;94959.75;;;5.50;100.00
12077;BME280;12420;42.676;23.262;2023-03-01T04:50:08;94970.50;;;5.53;100.00
12077;BME280;12420;42.676;23.262;2023-03-01T04:52:35;94955.50;;;5.54;100.00
12077;BME280;12420;42.676;23.262;2023-03-01T04:55:03;94951.44;;;5.44;100.00
12077;BME280;12420;42.676;23.262;2023-03-01T04:57:30;94942.81;;;5.31;100.00
12077;BME280;12420;42.676;23.262;2023-03-01T04:59:59;94959.94;;;5.46;100.00
12077;BME280;12420;42.676;23.262;2023-03-01T05:02:26;94950.63;;;5.38;100.00
12077;BME280;12420;42.676;23.262;2023-03-01T05:04:52;94951.50;;;5.50;100.00
12077;BME280;12420;42.676;23.262;2023-03-01T05:07:23;94954.56;;;5.57;100.00
12077;BME280;12420;42.676;23.262;2023-03-01T05:09:50;94968.22;;;5.52;100.00
12077;BME280;12420;42.676;23.262;2023-03-01T05:12:16;94961.19;;;5.45;100.00
12077;BME280;12420;42.676;23.262;2023-03-01T05:14:43;94971.56;;;5.61;100.00
12077;BME280;12420;42.676;23.262;2023-03-01T05:17:12;94970.81;;;5.61;100.00
12077;BME280;12420;42.676;23.262;2023-03-01T05:19:38;94960.53;;;5.56;100.00
12077;BME280;12420;42.676;23.262;2023-03-01T05:22:07;94972.75;;;5.55;100.00
12077;BME280;12420;42.676;23.262;2023-03-01T05:24:35;94977.06;;;5.61;100.00
12077;BME280;12420;42.676;23.262;2023-03-01T05:27:02;94968.38;;;5.69;100.00
12077;BME280;12420;42.676;23.262;2023-03-01T05:29:30;94957.56;;;5.59;100.00
12077;BME280;12420;42.676;23.262;2023-03-01T05:32:01;94969.84;;;5.64;100.00
12077;BME280;12420;42.676;23.262;2023-03-01T05:34:32;94922.91;;;5.36;100.00
12077;BME280;12420;42.676;23.262;2023-03-01T05:36:59;94969.09;;;5.63;100.00
12077;BME280;12420;42.676;23.262;2023-03-01T05:39:28;94968.84;;;5.67;100.00
12077;BME280;12420;42.676;23.262;2023-03-01T05:41:57;94971.13;;;5.69;100.00
12077;BME280;12420;42.676;23.262;2023-03-01T05:44:24;94953.59;;;5.60;100.00
12077;BME280;12420;42.676;23.262;2023-03-01T05:46:51;94980.16;;;5.75;100.00
12077;BME280;12420;42.676;23.262;2023-03-01T05:49:19;94967.13;;;5.70;100.00
12077;BME280;12420;42.676;23.262;2023-03-01T05:51:51;94942.94;;;5.42;100.00
12077;BME280;12420;42.676;23.262;2023-03-01T05:54:20;95007.38;;;5.73;100.00
12077;BME280;12420;42.676;23.262;2023-03-01T05:56:47;94995.13;;;5.74;100.00
12077;BME280;12420;42.676;23.262;2023-03-01T05:59:14;94996.19;;;5.82;100.00
12077;BME280;12420;42.676;23.262;2023-03-01T06:01:42;95004.16;;;5.80;100.00
12077;BME280;12420;42.676;23.262;2023-03-01T06:04:08;95004.28;;;5.91;100.00
12077;BME280;12420;42.676;23.262;2023-03-01T06:06:36;95003.16;;;5.77;100.00
12077;BME280;12420;42.676;23.262;2023-03-01T06:09:04;95013.56;;;5.94;100.00
12077;BME280;12420;42.676;23.262;2023-03-01T06:11:33;95006.13;;;6.00;100.00
12077;BME280;12420;42.676;23.262;2023-03-01T06:14:00;95016.75;;;5.92;100.00
12077;BME280;12420;42.676;23.262;2023-03-01T06:16:27;95016.66;;;6.07;100.00
12077;BME280;12420;42.676;23.262;2023-03-01T06:18:54;95024.16;;;6.06;100.00
12077;BME280;12420;42.676;23.262;2023-03-01T06:21:21;95024.94;;;6.13;100.00
12077;BME280;12420;42.676;23.262;2023-03-01T06:23:47;95027.63;;;6.01;100.00
12077;BME280;12420;42.676;23.262;2023-03-01T06:26:16;95027.19;;;6.08;100.00
12077;BME280;12420;42.676;23.262;2023-03-01T06:28:43;95031.97;;;6.14;100.00
12077;BME280;12420;42.676;23.262;2023-03-01T06:31:11;94995.22;;;5.85;100.00
12077;BME280;12420;42.676;23.262;2023-03-01T06:33:38;95030.72;;;6.15;100.00
12077;BME280;12420;42.676;23.262;2023-03-01T06:36:06;95033.19;;;6.13;100.00
12077;BME280;12420;42.676;23.262;2023-03-01T06:38:33;95036.38;;;6.05;100.00
12077;BME280;12420;42.676;23.262;2023-03-01T06:41:00;95029.94;;;6.08;100.00
12077;BME280;12420;42.676;23.262;2023-03-01T06:43:28;95025.63;;;6.02;100.00
12077;BME280;12420;42.676;23.262;2023-03-01T06:45:56;95017.38;;;6.02;100.00
12077;BME280;12420;42.676;23.262;2023-03-01T06:48:22;95024.94;;;6.13;100.00
12077;BME280;12420;42.676;23.262;2023-03-01T06:50:49;95029.16;;;6.08;100.00
12077;BME280;12420;42.676;23.262;2023-03-01T06:53:16;95019.38;;;6.01;100.00
12077;BME280;12420;42.676;23.262;2023-03-01T06:55:43;95020.44;;;6.09;100.00
12077;BME280;12420;42.676;23.262;2023-03-01T06:58:10;95018.94;;;6.08;100.00
12077;BME280;12420;42.676;23.262;2023-03-01T07:00:40;95027.78;;;6.18;100.00
12077;BME280;12420;42.676;23.262;2023-03-01T07:03:08;95021.91;;;6.05;100.00
12077;BME280;12420;42.676;23.262;2023-03-01T07:05:35;95028.13;;;6.05;100.00
12077;BME280;12420;42.676;23.262;2023-03-01T07:08:02;95029.81;;;5.97;100.00
12077;BME280;12420;42.676;23.262;2023-03-01T07:10:29;94922.88;;;5.30;100.00
12077;BME280;12420;42.676;23.262;2023-03-01T07:12:58;95019.50;;;5.92;100.00
12077;BME280;12420;42.676;23.262;2023-03-01T07:15:26;95030.88;;;6.05;100.00
12077;BME280;12420;42.676;23.262;2023-03-01T07:17:55;95011.34;;;5.98;100.00
12077;BME280;12420;42.676;23.262;2023-03-01T07:20:23;95029.50;;;6.16;100.00
12077;BME280;12420;42.676;23.262;2023-03-01T07:22:51;95003.16;;;6.03;100.00
12077;BME280;12420;42.676;23.262;2023-03-01T07:25:18;95021.19;;;6.10;100.00
12077;BME280;12420;42.676;23.262;2023-03-01T07:27:49;95020.00;;;6.17;100.00
12077;BME280;12420;42.676;23.262;2023-03-01T07:30:19;95017.56;;;6.24;100.00
12077;BME280;12420;42.676;23.262;2023-03-01T07:32:46;94995.97;;;6.12;100.00
12077;BME280;12420;42.676;23.262;2023-03-01T07:35:14;95013.00;;;6.16;100.00
12077;BME280;12420;42.676;23.262;2023-03-01T07:37:41;95016.59;;;6.33;100.00
12077;BME280;12420;42.676;23.262;2023-03-01T07:40:09;95020.50;;;6.52;100.00
12077;BME280;12420;42.676;23.262;2023-03-01T07:42:35;95022.78;;;6.60;100.00
12077;BME280;12420;42.676;23.262;2023-03-01T07:45:03;95025.56;;;6.65;100.00
12077;BME280;12420;42.676;23.262;2023-03-01T07:47:30;95006.22;;;6.48;100.00
12077;BME280;12420;42.676;23.262;2023-03-01T07:49:57;95017.34;;;6.71;100.00
12077;BME280;12420;42.676;23.262;2023-03-01T07:52:25;95020.03;;;6.60;100.00
12077;BME280;12420;42.676;23.262;2023-03-01T07:54:52;95009.81;;;6.66;100.00
12077;BME280;12420;42.676;23.262;2023-03-01T07:57:18;94997.94;;;6.43;100.00
12077;BME280;12420;42.676;23.262;2023-03-01T07:59:45;94961.38;;;6.31;100.00
12077;BME280;12420;42.676;23.262;2023-03-01T08:02:12;95011.34;;;6.67;100.00
12077;BME280;12420;42.676;23.262;2023-03-01T08:04:40;95011.13;;;6.76;100.00
12077;BME280;12420;42.676;23.262;2023-03-01T08:07:07;95016.34;;;6.74;100.00
12077;BME280;12420;42.676;23.262;2023-03-01T08:09:36;95008.94;;;6.91;100.00
12077;BME280;12420;42.676;23.262;2023-03-01T08:12:03;94962.03;;;6.58;100.00
12077;BME280;12420;42.676;23.262;2023-03-01T08:14:31;94994.41;;;6.85;100.00
12077;BME280;12420;42.676;23.262;2023-03-01T08:16:57;94980.25;;;6.55;100.00
12077;BME280;12420;42.676;23.262;2023-03-01T08:19:24;94952.47;;;6.47;100.00
12077;BME280;12420;42.676;23.262;2023-03-01T08:21:53;95011.03;;;7.08;100.00
12077;BME280;12420;42.676;23.262;2023-03-01T08:24:20;94995.19;;;6.91;100.00
12077;BME280;12420;42.676;23.262;2023-03-01T08:26:48;95003.88;;;6.79;100.00
12077;BME280;12420;42.676;23.262;2023-03-01T08:29:14;95003.91;;;6.84;100.00
12077;BME280;12420;42.676;23.262;2023-03-01T08:31:41;95009.22;;;6.93;100.00
12077;BME280;12420;42.676;23.262;2023-03-01T08:34:11;94983.41;;;6.85;100.00
12077;BME280;12420;42.676;23.262;2023-03-01T08:36:40;95010.50;;;7.04;100.00
12077;BME280;12420;42.676;23.262;2023-03-01T08:39:10;95010.75;;;7.06;100.00
12077;BME280;12420;42.676;23.262;2023-03-01T08:41:37;95009.78;;;7.09;100.00
12077;BME280;12420;42.676;23.262;2023-03-01T08:44:06;95001.84;;;7.28;100.00
12077;BME280;12420;42.676;23.262;2023-03-01T08:46:35;95010.84;;;7.28;100.00
12077;BME280;12420;42.676;23.262;2023-03-01T08:49:03;94985.72;;;7.04;100.00
12077;BME280;12420;42.676;23.262;2023-03-01T08:51:30;94996.59;;;7.35;100.00
12077;BME280;12420;42.676;23.262;2023-03-01T08:54:01;95005.91;;;7.49;100.00
12077;BME280;12420;42.676;23.262;2023-03-01T08:56:28;95016.13;;;7.37;100.00
12077;BME280;12420;42.676;23.262;2023-03-01T08:58:55;95014.41;;;7.51;100.00
12077;BME280;12420;42.676;23.262;2023-03-01T09:01:23;94974.59;;;7.58;100.00
12077;BME280;12420;42.676;23.262;2023-03-01T09:03:50;95011.47;;;8.00;100.00
12077;BME280;12420;42.676;23.262;2023-03-01T09:06:17;95017.47;;;7.87;100.00
12077;BME280;12420;42.676;23.262;2023-03-01T09:08:46;95012.97;;;7.90;100.00
12077;BME280;12420;42.676;23.262;2023-03-01T09:11:25;95013.22;;;8.09;100.00
12077;BME280;12420;42.676;23.262;2023-03-01T09:13:51;95000.69;;;8.13;100.00
12077;BME280;12420;42.676;23.262;2023-03-01T09:16:21;95022.25;;;8.32;100.00
12077;BME280;12420;42.676;23.262;2023-03-01T09:18:51;94971.63;;;8.01;100.00
12077;BME280;12420;42.676;23.262;2023-03-01T09:21:22;94981.63;;;7.70;100.00
12077;BME280;12420;42.676;23.262;2023-03-01T09:23:50;95001.91;;;7.67;100.00
12077;BME280;12420;42.676;23.262;2023-03-01T09:26:18;95007.69;;;7.69;100.00
12077;BME280;12420;42.676;23.262;2023-03-01T09:28:47;94999.66;;;7.54;100.00
12077;BME280;12420;42.676;23.262;2023-03-01T09:31:15;95014.19;;;7.66;100.00
12077;BME280;12420;42.676;23.262;2023-03-01T09:33:45;94961.03;;;7.37;100.00
12077;BME280;12420;42.676;23.262;2023-03-01T09:36:16;94996.63;;;7.58;100.00
12077;BME280;12420;42.676;23.262;2023-03-01T09:38:44;94991.66;;;7.73;100.00
12077;BME280;12420;42.676;23.262;2023-03-01T09:41:22;94949.28;;;7.31;100.00
12077;BME280;12420;42.676;23.262;2023-03-01T09:43:56;94976.81;;;7.31;100.00
12077;BME280;12420;42.676;23.262;2023-03-01T09:46:26;94996.13;;;7.48;100.00
12077;BME280;12420;42.676;23.262;2023-03-01T09:48:56;94985.34;;;7.39;100.00
12077;BME280;12420;42.676;23.262;2023-03-01T09:51:27;94993.13;;;7.52;100.00
12077;BME280;12420;42.676;23.262;2023-03-01T09:53:56;94986.13;;;7.56;100.00
12077;BME280;12420;42.676;23.262;2023-03-01T09:56:30;94983.13;;;7.54;100.00
12077;BME280;12420;42.676;23.262;2023-03-01T09:59:04;94976.38;;;7.72;100.00
12077;BME280;12420;42.676;23.262;2023-03-01T10:01:38;94931.75;;;7.40;100.00
12077;BME280;12420;42.676;23.262;2023-03-01T10:04:24;94955.84;;;7.79;100.00
12077;BME280;12420;42.676;23.262;2023-03-01T10:07:01;94974.66;;;7.92;100.00
12077;BME280;12420;42.676;23.262;2023-03-01T10:09:34;94980.16;;;7.92;100.00
12077;BME280;12420;42.676;23.262;2023-03-01T10:12:02;94970.38;;;8.02;100.00
12077;BME280;12420;42.676;23.262;2023-03-01T10:14:36;94964.09;;;8.18;100.00
12077;BME280;12420;42.676;23.262;2023-03-01T10:17:08;94963.56;;;8.37;100.00
12077;BME280;12420;42.676;23.262;2023-03-01T10:19:40;94964.84;;;8.24;100.00
12077;BME280;12420;42.676;23.262;2023-03-01T10:22:13;94969.88;;;8.09;100.00
12077;BME280;12420;42.676;23.262;2023-03-01T10:24:42;95027.50;;;8.24;100.00
12077;BME280;12420;42.676;23.262;2023-03-01T10:27:16;94942.06;;;7.85;100.00
12077;BME280;12420;42.676;23.262;2023-03-01T10:29:49;94915.50;;;7.48;100.00
12077;BME280;12420;42.676;23.262;2023-03-01T10:32:19;94959.84;;;7.95;100.00
12077;BME280;12420;42.676;23.262;2023-03-01T10:34:47;94951.59;;;7.95;100.00
12077;BME280;12420;42.676;23.262;2023-03-01T10:37:17;94918.28;;;7.87;100.00
12077;BME280;12420;42.676;23.262;2023-03-01T10:39:57;94946.06;;;8.06;100.00
12077;BME280;12420;42.676;23.262;2023-03-01T10:42:28;94961.84;;;8.11;100.00
12077;BME280;12420;42.676;23.262;2023-03-01T10:44:58;94936.78;;;7.81;100.00
12077;BME280;12420;42.676;23.262;2023-03-01T10:47:27;94951.56;;;7.83;100.00
12077;BME280;12420;42.676;23.262;2023-03-01T10:49:56;94954.34;;;7.95;100.00
12077;BME280;12420;42.676;23.262;2023-03-01T10:52:28;94949.34;;;8.04;100.00
12077;BME280;12420;42.676;23.262;2023-03-01T10:54:57;94955.59;;;8.11;100.00
12077;BME280;12420;42.676;23.262;2023-03-01T10:57:30;94952.34;;;7.95;100.00
12077;BME280;12420;42.676;23.262;2023-03-01T11:00:15;94951.56;;;7.83;100.00
12077;BME280;12420;42.676;23.262;2023-03-01T11:02:47;94946.06;;;7.78;100.00
12077;BME280;12420;42.676;23.262;2023-03-01T11:05:19;94954.59;;;7.74;100.00
12077;BME280;12420;42.676;23.262;2023-03-01T11:07:49;94950.34;;;7.79;100.00
12077;BME280;12420;42.676;23.262;2023-03-01T11:10:18;94944.56;;;7.71;100.00
12077;BME280;12420;42.676;23.262;2023-03-01T11:12:45;94949.84;;;7.97;100.00
12077;BME280;12420;42.676;23.262;2023-03-01T11:15:21;94912.75;;;7.70;100.00
12077;BME280;12420;42.676;23.262;2023-03-01T11:17:49;94943.28;;;8.29;100.00
12077;BME280;12420;42.676;23.262;2023-03-01T11:20:24;94945.53;;;8.36;100.00
12077;BME280;12420;42.676;23.262;2023-03-01T11:22:54;94948.78;;;8.34;100.00
12077;BME280;12420;42.676;23.262;2023-03-01T11:25:25;94946.28;;;8.36;100.00
12077;BME280;12420;42.676;23.262;2023-03-01T11:27:56;94937.50;;;8.49;100.00
12077;BME280;12420;42.676;23.262;2023-03-01T11:30:28;94941.50;;;8.37;100.00
12077;BME280;12420;42.676;23.262;2023-03-01T11:33:04;94944.31;;;8.14;100.00
12077;BME280;12420;42.676;23.262;2023-03-01T11:35:37;94904.19;;;8.19;100.00
12077;BME280;12420;42.676;23.262;2023-03-01T11:38:16;94882.19;;;7.85;100.00
12077;BME280;12420;42.676;23.262;2023-03-01T11:40:49;94918.00;;;8.02;100.00
12077;BME280;12420;42.676;23.262;2023-03-01T11:43:22;94925.00;;;8.09;100.00
12077;BME280;12420;42.676;23.262;2023-03-01T11:46:18;94876.69;;;7.85;100.00
12077;BME280;12420;42.676;23.262;2023-03-01T11:48:57;94917.50;;;7.98;100.00
12077;BME280;12420;42.676;23.262;2023-03-01T11:51:41;94909.47;;;8.22;100.00
12077;BME280;12420;42.676;23.262;2023-03-01T11:54:21;94856.13;;;7.92;100.00
12077;BME280;12420;42.676;23.262;2023-03-01T11:56:55;94917.50;;;8.09;100.00
12077;BME280;12420;42.676;23.262;2023-03-01T12:06:00;94883.66;;;8.09;100.00
12077;BME280;12420;42.676;23.262;2023-03-01T12:08:36;94900.94;;;8.20;100.00
12077;BME280;12420;42.676;23.262;2023-03-01T12:11:13;94894.91;;;8.27;100.00
12077;BME280;12420;42.676;23.262;2023-03-01T12:13:56;94891.63;;;8.40;100.00
12077;BME280;12420;42.676;23.262;2023-03-01T12:16:45;94895.16;;;8.30;100.00
12077;BME280;12420;42.676;23.262;2023-03-01T12:19:31;94890.41;;;8.19;100.00
12077;BME280;12420;42.676;23.262;2023-03-01T12:22:11;94893.88;;;8.36;100.00
12077;BME280;12420;42.676;23.262;2023-03-01T12:24:48;94886.09;;;8.46;100.00
12077;BME280;12420;42.676;23.262;2023-03-01T12:27:27;94883.28;;;8.57;100.00
12077;BME280;12420;42.676;23.262;2023-03-01T12:30:04;94891.56;;;8.63;100.00
12077;BME280;12420;42.676;23.262;2023-03-01T12:32:47;94878.53;;;8.52;100.00
12077;BME280;12420;42.676;23.262;2023-03-01T12:35:48;94847.56;;;8.18;100.00
12077;BME280;12420;42.676;23.262;2023-03-01T12:38:31;94866.28;;;8.47;100.00
12077;BME280;12420;42.676;23.262;2023-03-01T12:44:15;94869.41;;;8.85;100.00
12077;BME280;12420;42.676;23.262;2023-03-01T12:47:01;94881.22;;;8.80;100.00
12077;BME280;12420;42.676;23.262;2023-03-01T12:49:33;94846.16;;;8.64;100.00
12077;BME280;12420;42.676;23.262;2023-03-01T12:52:09;94875.53;;;9.08;100.00
12077;BME280;12420;42.676;23.262;2023-03-01T12:54:38;94887.25;;;9.20;100.00
12077;BME280;12420;42.676;23.262;2023-03-01T12:57:11;94884.81;;;9.11;100.00
12077;BME280;12420;42.676;23.262;2023-03-01T12:59:44;94878.94;;;9.26;100.00
12077;BME280;12420;42.676;23.262;2023-03-01T13:02:21;94884.19;;;9.29;100.00
12077;BME280;12420;42.676;23.262;2023-03-01T13:04:57;94877.22;;;9.17;100.00
12077;BME280;12420;42.676;23.262;2023-03-01T13:07:30;94875.66;;;9.27;100.00
12077;BME280;12420;42.676;23.262;2023-03-01T13:10:11;94878.63;;;9.35;100.00
12077;BME280;12420;42.676;23.262;2023-03-01T13:12:50;94850.16;;;9.10;100.00
12077;BME280;12420;42.676;23.262;2023-03-01T13:15:42;94881.00;;;9.55;100.00